sensor_id;sensor_type;location;lat;lon;timestamp;temperature;humidity
85562;DHT22;76005;50.882;3.882;2024-01-30T00:01:26;10.50;75.60
85562;DHT22;76005;50.882;3.882;2024-01-30T00:03:51;10.50;75.60
85562;DHT22;76005;50.882;3.882;2024-01-30T00:06:20;10.60;75.60
85562;DHT22;76005;50.882;3.882;2024-01-30T00:08:49;10.60;75.30
85562;DHT22;76005;50.882;3.882;2024-01-30T00:11:16;10.60;75.20
85562;DHT22;76005;50.882;3.882;2024-01-30T00:13:42;10.60;75.20
85562;DHT22;76005;50.882;3.882;2024-01-30T00:16:07;10.70;75.20
85562;DHT22;76005;50.882;3.882;2024-01-30T00:18:35;10.70;75.00
85562;DHT22;76005;50.882;3.882;2024-01-30T00:21:01;10.80;74.70
85562;DHT22;76005;50.882;3.882;2024-01-30T00:23:26;10.80;74.60
85562;DHT22;76005;50.882;3.882;2024-01-30T00:25:52;10.80;74.60
85562;DHT22;76005;50.882;3.882;2024-01-30T00:28:18;10.80;74.40
85562;DHT22;76005;50.882;3.882;2024-01-30T00:30:43;10.80;74.60
85562;DHT22;76005;50.882;3.882;2024-01-30T00:33:09;10.80;74.60
85562;DHT22;76005;50.882;3.882;2024-01-30T00:35:35;10.80;75.00
85562;DHT22;76005;50.882;3.882;2024-01-30T00:38:01;10.80;74.60
85562;DHT22;76005;50.882;3.882;2024-01-30T00:40:26;10.80;74.50
85562;DHT22;76005;50.882;3.882;2024-01-30T00:42:52;10.80;74.50
85562;DHT22;76005;50.882;3.882;2024-01-30T00:45:18;10.70;74.90
85562;DHT22;76005;50.882;3.882;2024-01-30T00:47:44;10.70;75.00
85562;DHT22;76005;50.882;3.882;2024-01-30T00:50:10;10.70;75.20
85562;DHT22;76005;50.882;3.882;2024-01-30T00:52:36;10.60;75.20
85562;DHT22;76005;50.882;3.882;2024-01-30T00:55:02;10.60;75.50
85562;DHT22;76005;50.882;3.882;2024-01-30T00:57:28;10.60;75.30
85562;DHT22;76005;50.882;3.882;2024-01-30T00:59:54;10.60;75.30
85562;DHT22;76005;50.882;3.882;2024-01-30T01:02:20;10.60;75.20
85562;DHT22;76005;50.882;3.882;2024-01-30T01:04:46;10.70;75.10
85562;DHT22;76005;50.882;3.882;2024-01-30T01:07:12;10.60;75.20
85562;DHT22;76005;50.882;3.882;2024-01-30T01:09:37;10.60;75.20
85562;DHT22;76005;50.882;3.882;2024-01-30T01:12:04;10.70;75.20
85562;DHT22;76005;50.882;3.882;2024-01-30T01:14:29;10.50;75.50
85562;DHT22;76005;50.882;3.882;2024-01-30T01:16:55;10.40;75.70
85562;DHT22;76005;50.882;3.882;2024-01-30T01:19:21;10.50;75.80
85562;DHT22;76005;50.882;3.882;2024-01-30T01:21:47;10.50;75.80
85562;DHT22;76005;50.882;3.882;2024-01-30T01:24:13;10.50;75.80
85562;DHT22;76005;50.882;3.882;2024-01-30T01:26:39;10.50;75.80
85562;DHT22;76005;50.882;3.882;2024-01-30T01:29:06;10.50;75.70
85562;DHT22;76005;50.882;3.882;2024-01-30T01:31:38;10.60;75.70
85562;DHT22;76005;50.882;3.882;2024-01-30T01:34:11;10.60;75.40
85562;DHT22;76005;50.882;3.882;2024-01-30T01:36:37;10.60;75.60
85562;DHT22;76005;50.882;3.882;2024-01-30T01:39:02;10.50;75.80
85562;DHT22;76005;50.882;3.882;2024-01-30T01:41:32;10.50;75.90
85562;DHT22;76005;50.882;3.882;2024-01-30T01:43:59;10.30;76.30
85562;DHT22;76005;50.882;3.882;2024-01-30T01:46:27;10.30;76.50
85562;DHT22;76005;50.882;3.882;2024-01-30T01:48:53;10.40;76.50
85562;DHT22;76005;50.882;3.882;2024-01-30T01:51:20;10.30;76.70
85562;DHT22;76005;50.882;3.882;2024-01-30T01:53:47;10.30;76.80
85562;DHT22;76005;50.882;3.882;2024-01-30T01:56:13;10.40;76.50
85562;DHT22;76005;50.882;3.882;2024-01-30T01:58:39;10.40;76.60
85562;DHT22;76005;50.882;3.882;2024-01-30T02:01:05;10.40;76.80
85562;DHT22;76005;50.882;3.882;2024-01-30T02:03:32;10.40;76.80
85562;DHT22;76005;50.882;3.882;2024-01-30T02:05:58;10.40;77.00
85562;DHT22;76005;50.882;3.882;2024-01-30T02:08:24;10.50;76.90
85562;DHT22;76005;50.882;3.882;2024-01-30T02:10:50;10.50;76.70
85562;DHT22;76005;50.882;3.882;2024-01-30T02:13:16;10.50;76.70
85562;DHT22;76005;50.882;3.882;2024-01-30T02:15:41;10.50;76.80
85562;DHT22;76005;50.882;3.882;2024-01-30T02:18:07;10.60;76.70
85562;DHT22;76005;50.882;3.882;2024-01-30T02:20:35;10.60;76.70
85562;DHT22;76005;50.882;3.882;2024-01-30T02:23:02;10.60;76.60
85562;DHT22;76005;50.882;3.882;2024-01-30T02:25:33;10.60;76.40
85562;DHT22;76005;50.882;3.882;2024-01-30T02:27:58;10.70;76.40
85562;DHT22;76005;50.882;3.882;2024-01-30T02:30:24;10.80;75.90
85562;DHT22;76005;50.882;3.882;2024-01-30T02:32:50;10.90;75.80
85562;DHT22;76005;50.882;3.882;2024-01-30T02:35:15;10.90;75.80
85562;DHT22;76005;50.882;3.882;2024-01-30T02:37:41;10.70;76.10
85562;DHT22;76005;50.882;3.882;2024-01-30T02:40:07;10.70;76.30
85562;DHT22;76005;50.882;3.882;2024-01-30T02:42:33;10.80;76.30
85562;DHT22;76005;50.882;3.882;2024-01-30T02:44:58;10.80;76.30
85562;DHT22;76005;50.882;3.882;2024-01-30T02:47:24;10.90;75.70
85562;DHT22;76005;50.882;3.882;2024-01-30T02:49:49;10.90;75.80
85562;DHT22;76005;50.882;3.882;2024-01-30T02:52:15;10.90;76.00
85562;DHT22;76005;50.882;3.882;2024-01-30T02:54:41;10.90;75.90
85562;DHT22;76005;50.882;3.882;2024-01-30T02:57:06;10.90;75.90
85562;DHT22;76005;50.882;3.882;2024-01-30T02:59:32;10.90;75.90
85562;DHT22;76005;50.882;3.882;2024-01-30T03:02:01;10.90;75.60
85562;DHT22;76005;50.882;3.882;2024-01-30T03:04:26;10.90;75.70
85562;DHT22;76005;50.882;3.882;2024-01-30T03:06:52;10.80;75.90
85562;DHT22;76005;50.882;3.882;2024-01-30T03:09:18;10.90;75.80
85562;DHT22;76005;50.882;3.882;2024-01-30T03:11:44;10.80;75.90
85562;DHT22;76005;50.882;3.882;2024-01-30T03:14:09;10.70;76.30
85562;DHT22;76005;50.882;3.882;2024-01-30T03:16:38;10.70;76.40
85562;DHT22;76005;50.882;3.882;2024-01-30T03:19:06;10.70;76.40
85562;DHT22;76005;50.882;3.882;2024-01-30T03:21:33;10.80;76.10
85562;DHT22;76005;50.882;3.882;2024-01-30T03:23:59;10.70;76.20
85562;DHT22;76005;50.882;3.882;2024-01-30T03:26:25;10.70;76.30
85562;DHT22;76005;50.882;3.882;2024-01-30T03:28:51;10.70;76.40
85562;DHT22;76005;50.882;3.882;2024-01-30T03:31:16;10.60;76.60
85562;DHT22;76005;50.882;3.882;2024-01-30T03:33:42;10.70;76.50
85562;DHT22;76005;50.882;3.882;2024-01-30T03:36:08;10.70;76.60
85562;DHT22;76005;50.882;3.882;2024-01-30T03:38:34;10.70;76.50
85562;DHT22;76005;50.882;3.882;2024-01-30T03:41:00;10.70;76.40
85562;DHT22;76005;50.882;3.882;2024-01-30T03:43:26;10.70;76.30
85562;DHT22;76005;50.882;3.882;2024-01-30T03:45:52;10.60;76.60
85562;DHT22;76005;50.882;3.882;2024-01-30T03:48:18;10.60;76.80
85562;DHT22;76005;50.882;3.882;2024-01-30T03:50:43;10.70;76.70
85562;DHT22;76005;50.882;3.882;2024-01-30T03:53:09;10.80;76.60
85562;DHT22;76005;50.882;3.882;2024-01-30T03:55:35;10.80;76.00
85562;DHT22;76005;50.882;3.882;2024-01-30T03:58:01;10.70;76.30
85562;DHT22;76005;50.882;3.882;2024-01-30T04:00:26;10.70;76.40
85562;DHT22;76005;50.882;3.882;2024-01-30T04:02:52;10.70;76.50
85562;DHT22;76005;50.882;3.882;2024-01-30T04:05:18;10.70;76.60
85562;DHT22;76005;50.882;3.882;2024-01-30T04:07:43;10.60;77.30
85562;DHT22;76005;50.882;3.882;2024-01-30T04:10:12;10.70;76.30
85562;DHT22;76005;50.882;3.882;2024-01-30T04:12:38;10.60;76.40
85562;DHT22;76005;50.882;3.882;2024-01-30T04:15:04;10.60;76.70
85562;DHT22;76005;50.882;3.882;2024-01-30T04:17:29;10.60;76.70
85562;DHT22;76005;50.882;3.882;2024-01-30T04:19:55;10.60;76.70
85562;DHT22;76005;50.882;3.882;2024-01-30T04:22:21;10.60;76.70
85562;DHT22;76005;50.882;3.882;2024-01-30T04:24:47;10.60;76.80
85562;DHT22;76005;50.882;3.882;2024-01-30T04:27:12;10.60;76.70
85562;DHT22;76005;50.882;3.882;2024-01-30T04:29:38;10.60;76.70
85562;DHT22;76005;50.882;3.882;2024-01-30T04:32:04;10.70;76.70
85562;DHT22;76005;50.882;3.882;2024-01-30T04:34:30;10.60;76.80
85562;DHT22;76005;50.882;3.882;2024-01-30T04:36:56;10.60;77.00
85562;DHT22;76005;50.882;3.882;2024-01-30T04:39:22;10.50;77.10
85562;DHT22;76005;50.882;3.882;2024-01-30T04:41:48;10.70;76.80
85562;DHT22;76005;50.882;3.882;2024-01-30T04:44:14;10.70;76.40
85562;DHT22;76005;50.882;3.882;2024-01-30T04:46:40;10.70;76.40
85562;DHT22;76005;50.882;3.882;2024-01-30T04:49:05;10.60;76.70
85562;DHT22;76005;50.882;3.882;2024-01-30T04:51:33;10.60;76.90
85562;DHT22;76005;50.882;3.882;2024-01-30T04:53:59;10.60;76.90
85562;DHT22;76005;50.882;3.882;2024-01-30T04:56:25;10.60;77.10
85562;DHT22;76005;50.882;3.882;2024-01-30T04:58:50;10.60;77.00
85562;DHT22;76005;50.882;3.882;2024-01-30T05:01:16;10.80;76.60
85562;DHT22;76005;50.882;3.882;2024-01-30T05:03:42;10.80;76.30
85562;DHT22;76005;50.882;3.882;2024-01-30T05:06:08;10.80;76.30
85562;DHT22;76005;50.882;3.882;2024-01-30T05:08:34;10.80;76.40
85562;DHT22;76005;50.882;3.882;2024-01-30T05:11:03;10.80;76.30
85562;DHT22;76005;50.882;3.882;2024-01-30T05:13:32;10.70;76.50
85562;DHT22;76005;50.882;3.882;2024-01-30T05:15:57;10.70;76.60
85562;DHT22;76005;50.882;3.882;2024-01-30T05:18:23;10.70;76.70
85562;DHT22;76005;50.882;3.882;2024-01-30T05:20:51;10.70;76.60
85562;DHT22;76005;50.882;3.882;2024-01-30T05:23:17;10.80;76.50
85562;DHT22;76005;50.882;3.882;2024-01-30T05:25:43;10.70;76.70
85562;DHT22;76005;50.882;3.882;2024-01-30T05:28:09;10.70;76.90
85562;DHT22;76005;50.882;3.882;2024-01-30T05:30:34;10.60;77.20
85562;DHT22;76005;50.882;3.882;2024-01-30T05:33:00;10.60;76.90
85562;DHT22;76005;50.882;3.882;2024-01-30T05:35:26;10.70;77.00
85562;DHT22;76005;50.882;3.882;2024-01-30T05:37:51;10.70;76.80
85562;DHT22;76005;50.882;3.882;2024-01-30T05:40:17;10.60;77.90
85562;DHT22;76005;50.882;3.882;2024-01-30T05:42:42;10.60;77.00
85562;DHT22;76005;50.882;3.882;2024-01-30T05:45:08;10.60;77.10
85562;DHT22;76005;50.882;3.882;2024-01-30T05:47:35;10.60;77.00
85562;DHT22;76005;50.882;3.882;2024-01-30T05:50:00;10.60;77.10
85562;DHT22;76005;50.882;3.882;2024-01-30T05:52:26;10.60;77.00
85562;DHT22;76005;50.882;3.882;2024-01-30T05:54:52;10.60;77.30
85562;DHT22;76005;50.882;3.882;2024-01-30T05:57:17;10.60;77.30
85562;DHT22;76005;50.882;3.882;2024-01-30T05:59:44;10.70;77.20
85562;DHT22;76005;50.882;3.882;2024-01-30T06:02:13;10.60;77.10
85562;DHT22;76005;50.882;3.882;2024-01-30T06:04:39;10.60;77.50
85562;DHT22;76005;50.882;3.882;2024-01-30T06:07:05;10.60;78.30
85562;DHT22;76005;50.882;3.882;2024-01-30T06:09:32;10.60;77.50
85562;DHT22;76005;50.882;3.882;2024-01-30T06:11:58;10.70;77.50
85562;DHT22;76005;50.882;3.882;2024-01-30T06:14:23;10.70;77.60
85562;DHT22;76005;50.882;3.882;2024-01-30T06:16:49;10.70;77.40
85562;DHT22;76005;50.882;3.882;2024-01-30T06:19:15;10.70;77.50
85562;DHT22;76005;50.882;3.882;2024-01-30T06:21:41;10.80;77.10
85562;DHT22;76005;50.882;3.882;2024-01-30T06:24:07;10.80;76.80
85562;DHT22;76005;50.882;3.882;2024-01-30T06:26:33;10.80;76.70
85562;DHT22;76005;50.882;3.882;2024-01-30T06:28:59;10.90;76.80
85562;DHT22;76005;50.882;3.882;2024-01-30T06:31:25;10.90;76.60
85562;DHT22;76005;50.882;3.882;2024-01-30T06:33:50;10.90;76.60
85562;DHT22;76005;50.882;3.882;2024-01-30T06:36:16;10.90;76.60
85562;DHT22;76005;50.882;3.882;2024-01-30T06:38:42;10.90;76.50
85562;DHT22;76005;50.882;3.882;2024-01-30T06:41:08;11.00;76.50
85562;DHT22;76005;50.882;3.882;2024-01-30T06:43:33;11.00;76.50
85562;DHT22;76005;50.882;3.882;2024-01-30T06:45:59;11.00;76.50
85562;DHT22;76005;50.882;3.882;2024-01-30T06:48:25;11.00;76.70
85562;DHT22;76005;50.882;3.882;2024-01-30T06:50:53;11.00;76.50
85562;DHT22;76005;50.882;3.882;2024-01-30T06:53:19;10.90;76.70
85562;DHT22;76005;50.882;3.882;2024-01-30T06:55:45;11.00;76.50
85562;DHT22;76005;50.882;3.882;2024-01-30T06:58:11;11.10;76.20
85562;DHT22;76005;50.882;3.882;2024-01-30T07:00:37;11.20;76.00
85562;DHT22;76005;50.882;3.882;2024-01-30T07:03:03;11.20;76.00
85562;DHT22;76005;50.882;3.882;2024-01-30T07:05:29;11.10;76.10
85562;DHT22;76005;50.882;3.882;2024-01-30T07:07:55;11.00;76.30
85562;DHT22;76005;50.882;3.882;2024-01-30T07:10:20;11.00;76.70
85562;DHT22;76005;50.882;3.882;2024-01-30T07:12:46;11.00;76.60
85562;DHT22;76005;50.882;3.882;2024-01-30T07:15:12;11.00;76.60
85562;DHT22;76005;50.882;3.882;2024-01-30T07:17:40;11.10;76.40
85562;DHT22;76005;50.882;3.882;2024-01-30T07:20:06;11.20;76.10
85562;DHT22;76005;50.882;3.882;2024-01-30T07:22:33;11.10;76.10
85562;DHT22;76005;50.882;3.882;2024-01-30T07:24:59;11.00;76.30
85562;DHT22;76005;50.882;3.882;2024-01-30T07:27:24;11.00;76.60
85562;DHT22;76005;50.882;3.882;2024-01-30T07:29:50;11.00;76.80
85562;DHT22;76005;50.882;3.882;2024-01-30T07:32:16;11.00;76.70
85562;DHT22;76005;50.882;3.882;2024-01-30T07:34:41;11.10;76.40
85562;DHT22;76005;50.882;3.882;2024-01-30T07:37:07;11.10;76.40
85562;DHT22;76005;50.882;3.882;2024-01-30T07:39:34;11.10;76.40
85562;DHT22;76005;50.882;3.882;2024-01-30T07:42:00;11.10;76.10
85562;DHT22;76005;50.882;3.882;2024-01-30T07:44:26;11.10;76.50
85562;DHT22;76005;50.882;3.882;2024-01-30T07:46:51;11.20;76.30
85562;DHT22;76005;50.882;3.882;2024-01-30T07:49:17;11.20;76.20
85562;DHT22;76005;50.882;3.882;2024-01-30T07:51:43;11.10;76.50
85562;DHT22;76005;50.882;3.882;2024-01-30T07:54:10;11.00;76.90
85562;DHT22;76005;50.882;3.882;2024-01-30T07:56:36;11.00;76.90
85562;DHT22;76005;50.882;3.882;2024-01-30T07:59:01;10.90;77.20
85562;DHT22;76005;50.882;3.882;2024-01-30T08:01:27;11.00;78.10
85562;DHT22;76005;50.882;3.882;2024-01-30T08:03:53;11.10;76.90
85562;DHT22;76005;50.882;3.882;2024-01-30T08:06:18;11.10;76.70
85562;DHT22;76005;50.882;3.882;2024-01-30T08:08:45;11.10;76.80
85562;DHT22;76005;50.882;3.882;2024-01-30T08:11:10;11.10;76.60
85562;DHT22;76005;50.882;3.882;2024-01-30T08:13:36;11.20;76.70
85562;DHT22;76005;50.882;3.882;2024-01-30T08:16:01;11.10;76.60
85562;DHT22;76005;50.882;3.882;2024-01-30T08:18:27;11.10;76.70
85562;DHT22;76005;50.882;3.882;2024-01-30T08:20:53;11.10;76.90
85562;DHT22;76005;50.882;3.882;2024-01-30T08:23:18;11.00;77.30
85562;DHT22;76005;50.882;3.882;2024-01-30T08:25:44;11.10;77.20
85562;DHT22;76005;50.882;3.882;2024-01-30T08:28:10;11.10;76.90
85562;DHT22;76005;50.882;3.882;2024-01-30T08:30:35;11.10;77.10
85562;DHT22;76005;50.882;3.882;2024-01-30T08:33:01;11.00;77.50
85562;DHT22;76005;50.882;3.882;2024-01-30T08:35:26;11.00;77.80
85562;DHT22;76005;50.882;3.882;2024-01-30T08:37:52;11.00;77.70
85562;DHT22;76005;50.882;3.882;2024-01-30T08:40:19;11.10;77.50
85562;DHT22;76005;50.882;3.882;2024-01-30T08:42:45;11.00;77.70
85562;DHT22;76005;50.882;3.882;2024-01-30T08:45:11;11.10;77.60
85562;DHT22;76005;50.882;3.882;2024-01-30T08:47:37;11.10;77.50
85562;DHT22;76005;50.882;3.882;2024-01-30T08:50:03;11.10;77.80
85562;DHT22;76005;50.882;3.882;2024-01-30T08:52:29;11.20;77.90
85562;DHT22;76005;50.882;3.882;2024-01-30T08:54:55;11.10;78.40
85562;DHT22;76005;50.882;3.882;2024-01-30T08:57:20;11.20;78.30
85562;DHT22;76005;50.882;3.882;2024-01-30T08:59:46;11.30;78.30
85562;DHT22;76005;50.882;3.882;2024-01-30T09:02:13;11.40;78.70
85562;DHT22;76005;50.882;3.882;2024-01-30T09:04:41;11.50;78.60
85562;DHT22;76005;50.882;3.882;2024-01-30T09:07:08;11.60;78.50
85562;DHT22;76005;50.882;3.882;2024-01-30T09:09:34;11.60;78.60
85562;DHT22;76005;50.882;3.882;2024-01-30T09:12:00;11.50;78.70
85562;DHT22;76005;50.882;3.882;2024-01-30T09:14:32;11.60;78.40
85562;DHT22;76005;50.882;3.882;2024-01-30T09:16:58;11.60;78.20
85562;DHT22;76005;50.882;3.882;2024-01-30T09:19:23;11.60;78.20
85562;DHT22;76005;50.882;3.882;2024-01-30T09:21:49;11.60;78.40
85562;DHT22;76005;50.882;3.882;2024-01-30T09:24:14;11.60;78.00
85562;DHT22;76005;50.882;3.882;2024-01-30T09:26:40;11.70;77.80
85562;DHT22;76005;50.882;3.882;2024-01-30T09:29:06;11.70;77.50
85562;DHT22;76005;50.882;3.882;2024-01-30T09:31:31;11.70;77.30
85562;DHT22;76005;50.882;3.882;2024-01-30T09:33:57;11.70;77.40
85562;DHT22;76005;50.882;3.882;2024-01-30T09:36:22;11.70;76.90
85562;DHT22;76005;50.882;3.882;2024-01-30T09:38:48;11.70;76.70
85562;DHT22;76005;50.882;3.882;2024-01-30T09:41:15;11.80;76.30
85562;DHT22;76005;50.882;3.882;2024-01-30T09:43:47;11.60;76.80
85562;DHT22;76005;50.882;3.882;2024-01-30T09:46:15;11.70;76.70
85562;DHT22;76005;50.882;3.882;2024-01-30T09:48:41;11.70;76.60
85562;DHT22;76005;50.882;3.882;2024-01-30T09:51:11;11.80;76.50
85562;DHT22;76005;50.882;3.882;2024-01-30T09:53:37;11.80;76.50
85562;DHT22;76005;50.882;3.882;2024-01-30T09:56:04;11.80;75.80
85562;DHT22;76005;50.882;3.882;2024-01-30T09:58:30;11.70;75.70
85562;DHT22;76005;50.882;3.882;2024-01-30T10:00:56;11.70;75.80
85562;DHT22;76005;50.882;3.882;2024-01-30T10:03:22;11.70;75.40
85562;DHT22;76005;50.882;3.882;2024-01-30T10:05:55;11.80;75.40
85562;DHT22;76005;50.882;3.882;2024-01-30T10:08:21;11.90;74.40
85562;DHT22;76005;50.882;3.882;2024-01-30T10:10:47;12.00;74.10
85562;DHT22;76005;50.882;3.882;2024-01-30T10:13:13;12.00;73.80
85562;DHT22;76005;50.882;3.882;2024-01-30T10:15:39;11.90;73.80
85562;DHT22;76005;50.882;3.882;2024-01-30T10:18:06;11.80;73.40
85562;DHT22;76005;50.882;3.882;2024-01-30T10:20:32;11.80;73.30
85562;DHT22;76005;50.882;3.882;2024-01-30T10:22:58;11.60;73.60
85562;DHT22;76005;50.882;3.882;2024-01-30T10:25:25;11.60;73.00
85562;DHT22;76005;50.882;3.882;2024-01-30T10:27:55;11.70;72.60
85562;DHT22;76005;50.882;3.882;2024-01-30T10:30:21;11.50;72.00
85562;DHT22;76005;50.882;3.882;2024-01-30T10:32:48;11.50;71.50
85562;DHT22;76005;50.882;3.882;2024-01-30T10:35:14;11.40;71.10
85562;DHT22;76005;50.882;3.882;2024-01-30T10:37:41;11.50;70.70
85562;DHT22;76005;50.882;3.882;2024-01-30T10:40:09;11.40;70.90
85562;DHT22;76005;50.882;3.882;2024-01-30T10:42:42;11.50;70.40
85562;DHT22;76005;50.882;3.882;2024-01-30T10:45:10;11.50;70.10
85562;DHT22;76005;50.882;3.882;2024-01-30T10:47:49;11.50;69.00
85562;DHT22;76005;50.882;3.882;2024-01-30T10:50:15;11.40;68.50
85562;DHT22;76005;50.882;3.882;2024-01-30T10:52:41;11.40;68.80
85562;DHT22;76005;50.882;3.882;2024-01-30T10:55:11;11.40;68.90
85562;DHT22;76005;50.882;3.882;2024-01-30T10:57:37;11.40;68.60
85562;DHT22;76005;50.882;3.882;2024-01-30T11:00:10;11.40;68.60
85562;DHT22;76005;50.882;3.882;2024-01-30T11:02:43;11.50;68.00
85562;DHT22;76005;50.882;3.882;2024-01-30T11:05:09;11.70;67.80
85562;DHT22;76005;50.882;3.882;2024-01-30T11:07:35;11.60;67.50
85562;DHT22;76005;50.882;3.882;2024-01-30T11:10:03;11.50;67.50
85562;DHT22;76005;50.882;3.882;2024-01-30T11:12:33;11.30;67.70
85562;DHT22;76005;50.882;3.882;2024-01-30T11:15:07;11.10;68.60
85562;DHT22;76005;50.882;3.882;2024-01-30T11:18:00;11.50;68.00
85562;DHT22;76005;50.882;3.882;2024-01-30T11:20:29;11.90;66.80
85562;DHT22;76005;50.882;3.882;2024-01-30T11:22:57;12.30;66.00
85562;DHT22;76005;50.882;3.882;2024-01-30T11:25:23;12.50;64.90
85562;DHT22;76005;50.882;3.882;2024-01-30T11:27:51;12.50;65.10
85562;DHT22;76005;50.882;3.882;2024-01-30T11:30:31;12.80;65.10
85562;DHT22;76005;50.882;3.882;2024-01-30T11:35:40;12.90;63.90
85562;DHT22;76005;50.882;3.882;2024-01-30T11:38:07;12.80;64.40
85562;DHT22;76005;50.882;3.882;2024-01-30T11:40:34;12.50;64.60
85562;DHT22;76005;50.882;3.882;2024-01-30T11:43:02;12.40;64.90
85562;DHT22;76005;50.882;3.882;2024-01-30T11:45:28;12.40;65.50
85562;DHT22;76005;50.882;3.882;2024-01-30T11:47:54;12.30;66.00
85562;DHT22;76005;50.882;3.882;2024-01-30T11:50:21;12.30;66.20
85562;DHT22;76005;50.882;3.882;2024-01-30T11:52:48;12.40;66.30
85562;DHT22;76005;50.882;3.882;2024-01-30T11:55:14;12.40;65.50
85562;DHT22;76005;50.882;3.882;2024-01-30T11:57:40;12.20;66.30
85562;DHT22;76005;50.882;3.882;2024-01-30T12:00:13;12.10;65.10
85562;DHT22;76005;50.882;3.882;2024-01-30T12:02:42;11.90;64.70
85562;DHT22;76005;50.882;3.882;2024-01-30T12:05:08;11.70;64.30
85562;DHT22;76005;50.882;3.882;2024-01-30T12:07:35;11.80;64.50
85562;DHT22;76005;50.882;3.882;2024-01-30T12:10:02;12.10;64.40
85562;DHT22;76005;50.882;3.882;2024-01-30T12:12:28;12.30;64.30
85562;DHT22;76005;50.882;3.882;2024-01-30T12:14:55;12.50;63.50
85562;DHT22;76005;50.882;3.882;2024-01-30T12:17:39;12.40;63.00
85562;DHT22;76005;50.882;3.882;2024-01-30T12:20:06;12.20;63.00
85562;DHT22;76005;50.882;3.882;2024-01-30T12:22:43;12.00;64.00
85562;DHT22;76005;50.882;3.882;2024-01-30T12:25:09;11.90;64.50
85562;DHT22;76005;50.882;3.882;2024-01-30T12:27:39;11.80;65.30
85562;DHT22;76005;50.882;3.882;2024-01-30T12:30:09;11.70;65.80
85562;DHT22;76005;50.882;3.882;2024-01-30T12:32:43;11.90;65.50
85562;DHT22;76005;50.882;3.882;2024-01-30T12:35:13;11.90;65.10
85562;DHT22;76005;50.882;3.882;2024-01-30T12:37:39;11.80;65.00
85562;DHT22;76005;50.882;3.882;2024-01-30T12:40:08;11.70;64.90
85562;DHT22;76005;50.882;3.882;2024-01-30T12:42:35;11.70;65.30
85562;DHT22;76005;50.882;3.882;2024-01-30T12:45:02;11.80;65.00
85562;DHT22;76005;50.882;3.882;2024-01-30T12:47:28;11.80;64.30
85562;DHT22;76005;50.882;3.882;2024-01-30T12:49:54;11.90;64.60
85562;DHT22;76005;50.882;3.882;2024-01-30T12:52:21;11.90;64.80
85562;DHT22;76005;50.882;3.882;2024-01-30T12:54:47;11.80;64.90
85562;DHT22;76005;50.882;3.882;2024-01-30T12:57:13;11.80;65.00
85562;DHT22;76005;50.882;3.882;2024-01-30T12:59:38;11.70;65.00
85562;DHT22;76005;50.882;3.882;2024-01-30T13:02:05;11.60;65.50
85562;DHT22;76005;50.882;3.882;2024-01-30T13:04:31;11.60;65.60
85562;DHT22;76005;50.882;3.882;2024-01-30T13:06:57;11.70;65.50
85562;DHT22;76005;50.882;3.882;2024-01-30T13:09:23;11.60;65.90
85562;DHT22;76005;50.882;3.882;2024-01-30T13:11:50;11.60;66.10
85562;DHT22;76005;50.882;3.882;2024-01-30T13:14:16;11.50;66.30
85562;DHT22;76005;50.882;3.882;2024-01-30T13:16:42;11.40;66.60
85562;DHT22;76005;50.882;3.882;2024-01-30T13:19:08;11.40;67.00
85562;DHT22;76005;50.882;3.882;2024-01-30T13:21:33;11.30;67.20
85562;DHT22;76005;50.882;3.882;2024-01-30T13:23:59;11.30;67.10
85562;DHT22;76005;50.882;3.882;2024-01-30T13:26:25;11.30;66.60
85562;DHT22;76005;50.882;3.882;2024-01-30T13:28:51;11.20;67.20
85562;DHT22;76005;50.882;3.882;2024-01-30T13:31:17;11.20;67.40
85562;DHT22;76005;50.882;3.882;2024-01-30T13:33:43;11.20;67.70
85562;DHT22;76005;50.882;3.882;2024-01-30T13:36:11;11.30;67.50
85562;DHT22;76005;50.882;3.882;2024-01-30T13:38:37;11.20;67.60
85562;DHT22;76005;50.882;3.882;2024-01-30T13:41:03;11.20;67.80
85562;DHT22;76005;50.882;3.882;2024-01-30T13:43:29;11.10;67.40
85562;DHT22;76005;50.882;3.882;2024-01-30T13:45:55;10.90;67.80
85562;DHT22;76005;50.882;3.882;2024-01-30T13:48:20;10.90;68.30
85562;DHT22;76005;50.882;3.882;2024-01-30T13:50:47;10.90;67.80
85562;DHT22;76005;50.882;3.882;2024-01-30T13:53:13;11.00;67.60
85562;DHT22;76005;50.882;3.882;2024-01-30T13:55:39;11.00;67.50
85562;DHT22;76005;50.882;3.882;2024-01-30T13:58:05;11.10;67.00
85562;DHT22;76005;50.882;3.882;2024-01-30T14:00:33;11.00;66.60
85562;DHT22;76005;50.882;3.882;2024-01-30T14:02:59;11.00;66.50
85562;DHT22;76005;50.882;3.882;2024-01-30T14:05:25;10.90;66.70
85562;DHT22;76005;50.882;3.882;2024-01-30T14:07:52;10.90;66.70
85562;DHT22;76005;50.882;3.882;2024-01-30T14:10:18;10.90;66.70
85562;DHT22;76005;50.882;3.882;2024-01-30T14:12:44;10.80;66.70
85562;DHT22;76005;50.882;3.882;2024-01-30T14:15:10;10.80;66.80
85562;DHT22;76005;50.882;3.882;2024-01-30T14:17:36;10.90;66.40
85562;DHT22;76005;50.882;3.882;2024-01-30T14:20:03;10.80;66.40
85562;DHT22;76005;50.882;3.882;2024-01-30T14:22:31;10.90;66.50
85562;DHT22;76005;50.882;3.882;2024-01-30T14:24:56;10.90;66.00
85562;DHT22;76005;50.882;3.882;2024-01-30T14:27:22;10.90;65.70
85562;DHT22;76005;50.882;3.882;2024-01-30T14:29:48;10.80;65.70
85562;DHT22;76005;50.882;3.882;2024-01-30T14:32:13;10.90;64.90
85562;DHT22;76005;50.882;3.882;2024-01-30T14:34:39;10.90;64.70
85562;DHT22;76005;50.882;3.882;2024-01-30T14:37:05;10.90;64.70
85562;DHT22;76005;50.882;3.882;2024-01-30T14:39:31;10.90;64.40
85562;DHT22;76005;50.882;3.882;2024-01-30T14:41:58;10.90;64.60
85562;DHT22;76005;50.882;3.882;2024-01-30T14:44:24;10.90;64.40
85562;DHT22;76005;50.882;3.882;2024-01-30T14:46:49;10.90;64.60
85562;DHT22;76005;50.882;3.882;2024-01-30T14:49:15;10.90;64.50
85562;DHT22;76005;50.882;3.882;2024-01-30T14:51:42;11.00;64.40
85562;DHT22;76005;50.882;3.882;2024-01-30T14:54:07;10.90;64.70
85562;DHT22;76005;50.882;3.882;2024-01-30T14:56:33;11.00;64.80
85562;DHT22;76005;50.882;3.882;2024-01-30T14:59:00;11.00;64.90
85562;DHT22;76005;50.882;3.882;2024-01-30T15:01:26;11.00;64.80
85562;DHT22;76005;50.882;3.882;2024-01-30T15:03:52;11.00;65.00
85562;DHT22;76005;50.882;3.882;2024-01-30T15:06:18;11.00;64.90
85562;DHT22;76005;50.882;3.882;2024-01-30T15:08:43;11.00;64.80
85562;DHT22;76005;50.882;3.882;2024-01-30T15:11:10;10.90;65.00
85562;DHT22;76005;50.882;3.882;2024-01-30T15:13:36;10.90;65.20
85562;DHT22;76005;50.882;3.882;2024-01-30T15:16:02;10.90;65.30
85562;DHT22;76005;50.882;3.882;2024-01-30T15:18:30;10.90;65.00
85562;DHT22;76005;50.882;3.882;2024-01-30T15:20:56;10.90;65.30
85562;DHT22;76005;50.882;3.882;2024-01-30T15:23:21;10.90;65.30
85562;DHT22;76005;50.882;3.882;2024-01-30T15:25:47;11.00;65.60
85562;DHT22;76005;50.882;3.882;2024-01-30T15:28:13;11.00;66.30